sensor_id;sensor_type;location;lat;lon;timestamp;P1;P2;P0
74880;PMS5003;63427;49.654;6.596;2023-04-24T00:02:12;0;0;
74880;PMS5003;63427;49.654;6.596;2023-04-24T00:04:37;1;1;
74880;PMS5003;63427;49.654;6.596;2023-04-24T00:07:03;1;0;
74880;PMS5003;63427;49.654;6.596;2023-04-24T00:09:28;0;0;
74880;PMS5003;63427;49.654;6.596;2023-04-24T00:11:54;0;0;
74880;PMS5003;63427;49.654;6.596;2023-04-24T00:14:19;1;1;
74880;PMS5003;63427;49.654;6.596;2023-04-24T00:16:45;1;1;
74880;PMS5003;63427;49.654;6.596;2023-04-24T00:19:10;1;1;
74880;PMS5003;63427;49.654;6.596;2023-04-24T00:21:36;1;1;
74880;PMS5003;63427;49.654;6.596;2023-04-24T00:24:01;1;1;
74880;PMS5003;63427;49.654;6.596;2023-04-24T00:26:27;0;0;
74880;PMS5003;63427;49.654;6.596;2023-04-24T00:28:52;0;0;
74880;PMS5003;63427;49.654;6.596;2023-04-24T00:31:18;1;1;
74880;PMS5003;63427;49.654;6.596;2023-04-24T00:33:43;1;1;
74880;PMS5003;63427;49.654;6.596;2023-04-24T00:36:10;1;1;
74880;PMS5003;63427;49.654;6.596;2023-04-24T00:38:34;0;0;
74880;PMS5003;63427;49.654;6.596;2023-04-24T00:41:00;2;2;
74880;PMS5003;63427;49.654;6.596;2023-04-24T00:43:25;1;1;
74880;PMS5003;63427;49.654;6.596;2023-04-24T00:45:51;2;2;
74880;PMS5003;63427;49.654;6.596;2023-04-24T00:48:16;3;3;
74880;PMS5003;63427;49.654;6.596;2023-04-24T00:50:42;3;3;
74880;PMS5003;63427;49.654;6.596;2023-04-24T00:53:07;3;3;
74880;PMS5003;63427;49.654;6.596;2023-04-24T00:55:33;4;4;
74880;PMS5003;63427;49.654;6.596;2023-04-24T00:57:58;2;1;
74880;PMS5003;63427;49.654;6.596;2023-04-24T01:00:24;2;2;
74880;PMS5003;63427;49.654;6.596;2023-04-24T01:02:49;3;3;
74880;PMS5003;63427;49.654;6.596;2023-04-24T01:05:15;3;3;
74880;PMS5003;63427;49.654;6.596;2023-04-24T01:07:41;3;3;
74880;PMS5003;63427;49.654;6.596;2023-04-24T01:10:07;3;3;
74880;PMS5003;63427;49.654;6.596;2023-04-24T01:12:31;3;3;
74880;PMS5003;63427;49.654;6.596;2023-04-24T01:14:57;3;3;
74880;PMS5003;63427;49.654;6.596;2023-04-24T01:17:22;2;2;
74880;PMS5003;63427;49.654;6.596;2023-04-24T01:19:48;4;4;
74880;PMS5003;63427;49.654;6.596;2023-04-24T01:22:14;5;5;
74880;PMS5003;63427;49.654;6.596;2023-04-24T01:24:39;3;3;
74880;PMS5003;63427;49.654;6.596;2023-04-24T01:27:04;5;5;
74880;PMS5003;63427;49.654;6.596;2023-04-24T01:29:30;5;4;
74880;PMS5003;63427;49.654;6.596;2023-04-24T01:31:55;8;8;
74880;PMS5003;63427;49.654;6.596;2023-04-24T01:34:21;7;7;
74880;PMS5003;63427;49.654;6.596;2023-04-24T01:36:47;7;6;
74880;PMS5003;63427;49.654;6.596;2023-04-24T01:39:12;6;6;
74880;PMS5003;63427;49.654;6.596;2023-04-24T01:41:38;8;8;
74880;PMS5003;63427;49.654;6.596;2023-04-24T01:44:03;7;7;
74880;PMS5003;63427;49.654;6.596;2023-04-24T01:46:29;8;8;
74880;PMS5003;63427;49.654;6.596;2023-04-24T01:48:54;7;7;
74880;PMS5003;63427;49.654;6.596;2023-04-24T01:51:20;6;6;
74880;PMS5003;63427;49.654;6.596;2023-04-24T01:53:45;7;7;
74880;PMS5003;63427;49.654;6.596;2023-04-24T01:56:11;6;6;
74880;PMS5003;63427;49.654;6.596;2023-04-24T01:58:37;7;7;
74880;PMS5003;63427;49.654;6.596;2023-04-24T02:01:02;6;6;
74880;PMS5003;63427;49.654;6.596;2023-04-24T02:03:28;9;9;
74880;PMS5003;63427;49.654;6.596;2023-04-24T02:05:53;8;8;
74880;PMS5003;63427;49.654;6.596;2023-04-24T02:08:19;10;10;
74880;PMS5003;63427;49.654;6.596;2023-04-24T02:10:49;10;9;
74880;PMS5003;63427;49.654;6.596;2023-04-24T02:13:10;8;7;
74880;PMS5003;63427;49.654;6.596;2023-04-24T02:15:37;4;4;
74880;PMS5003;63427;49.654;6.596;2023-04-24T02:18:01;6;6;
74880;PMS5003;63427;49.654;6.596;2023-04-24T02:20:27;7;7;
74880;PMS5003;63427;49.654;6.596;2023-04-24T02:22:52;8;8;
74880;PMS5003;63427;49.654;6.596;2023-04-24T02:25:19;11;11;
74880;PMS5003;63427;49.654;6.596;2023-04-24T02:27:43;7;7;
74880;PMS5003;63427;49.654;6.596;2023-04-24T02:30:09;9;9;
74880;PMS5003;63427;49.654;6.596;2023-04-24T02:32:35;8;8;
74880;PMS5003;63427;49.654;6.596;2023-04-24T02:35:00;12;11;
74880;PMS5003;63427;49.654;6.596;2023-04-24T02:37:26;10;10;
74880;PMS5003;63427;49.654;6.596;2023-04-24T02:39:51;10;9;
74880;PMS5003;63427;49.654;6.596;2023-04-24T02:42:17;11;11;
74880;PMS5003;63427;49.654;6.596;2023-04-24T02:44:43;12;12;
74880;PMS5003;63427;49.654;6.596;2023-04-24T02:47:08;14;13;
74880;PMS5003;63427;49.654;6.596;2023-04-24T02:49:34;13;13;
74880;PMS5003;63427;49.654;6.596;2023-04-24T02:51:59;14;14;
74880;PMS5003;63427;49.654;6.596;2023-04-24T02:54:25;14;13;
74880;PMS5003;63427;49.654;6.596;2023-04-24T02:56:51;15;15;
74880;PMS5003;63427;49.654;6.596;2023-04-24T02:59:16;14;13;
74880;PMS5003;63427;49.654;6.596;2023-04-24T03:01:41;11;11;
74880;PMS5003;63427;49.654;6.596;2023-04-24T03:04:07;16;16;
74880;PMS5003;63427;49.654;6.596;2023-04-24T03:06:32;14;14;
74880;PMS5003;63427;49.654;6.596;2023-04-24T03:08:58;14;14;
74880;PMS5003;63427;49.654;6.596;2023-04-24T03:11:23;13;13;
74880;PMS5003;63427;49.654;6.596;2023-04-24T03:13:49;16;16;
74880;PMS5003;63427;49.654;6.596;2023-04-24T03:16:14;15;15;
74880;PMS5003;63427;49.654;6.596;2023-04-24T03:18:41;18;18;
74880;PMS5003;63427;49.654;6.596;2023-04-24T03:21:06;16;15;
74880;PMS5003;63427;49.654;6.596;2023-04-24T03:23:31;17;15;
74880;PMS5003;63427;49.654;6.596;2023-04-24T03:25:57;16;16;
74880;PMS5003;63427;49.654;6.596;2023-04-24T03:28:22;18;17;
74880;PMS5003;63427;49.654;6.596;2023-04-24T03:30:48;17;17;
74880;PMS5003;63427;49.654;6.596;2023-04-24T03:33:13;15;14;
74880;PMS5003;63427;49.654;6.596;2023-04-24T03:35:39;21;20;
74880;PMS5003;63427;49.654;6.596;2023-04-24T03:38:04;17;17;
74880;PMS5003;63427;49.654;6.596;2023-04-24T03:40:30;18;18;
74880;PMS5003;63427;49.654;6.596;2023-04-24T03:42:56;16;15;
74880;PMS5003;63427;49.654;6.596;2023-04-24T03:45:21;19;19;
74880;PMS5003;63427;49.654;6.596;2023-04-24T03:47:47;23;23;
74880;PMS5003;63427;49.654;6.596;2023-04-24T03:50:12;19;19;
74880;PMS5003;63427;49.654;6.596;2023-04-24T03:52:37;18;18;
74880;PMS5003;63427;49.654;6.596;2023-04-24T03:55:03;18;18;
74880;PMS5003;63427;49.654;6.596;2023-04-24T03:57:28;16;16;
74880;PMS5003;63427;49.654;6.596;2023-04-24T03:59:53;16;16;
74880;PMS5003;63427;49.654;6.596;2023-04-24T04:02:19;19;18;
74880;PMS5003;63427;49.654;6.596;2023-04-24T04:04:44;21;21;
74880;PMS5003;63427;49.654;6.596;2023-04-24T04:07:10;21;21;
74880;PMS5003;63427;49.654;6.596;2023-04-24T04:09:35;17;17;
74880;PMS5003;63427;49.654;6.596;2023-04-24T04:12:00;17;17;
74880;PMS5003;63427;49.654;6.596;2023-04-24T04:14:26;15;15;
74880;PMS5003;63427;49.654;6.596;2023-04-24T04:16:51;14;14;
74880;PMS5003;63427;49.654;6.596;2023-04-24T04:19:17;16;15;
74880;PMS5003;63427;49.654;6.596;2023-04-24T04:21:42;14;14;
74880;PMS5003;63427;49.654;6.596;2023-04-24T04:24:08;13;13;
74880;PMS5003;63427;49.654;6.596;2023-04-24T04:26:33;16;16;
74880;PMS5003;63427;49.654;6.596;2023-04-24T04:28:59;13;12;
74880;PMS5003;63427;49.654;6.596;2023-04-24T04:31:29;14;14;
74880;PMS5003;63427;49.654;6.596;2023-04-24T04:33:50;16;16;
74880;PMS5003;63427;49.654;6.596;2023-04-24T04:36:16;15;15;
74880;PMS5003;63427;49.654;6.596;2023-04-24T04:38:41;15;15;
74880;PMS5003;63427;49.654;6.596;2023-04-24T04:41:07;11;11;
74880;PMS5003;63427;49.654;6.596;2023-04-24T04:43:32;15;15;
74880;PMS5003;63427;49.654;6.596;2023-04-24T04:45:58;18;17;
74880;PMS5003;63427;49.654;6.596;2023-04-24T08:38:47;15;14;
74880;PMS5003;63427;49.654;6.596;2023-04-24T08:41:12;15;14;
74880;PMS5003;63427;49.654;6.596;2023-04-24T08:43:38;10;10;
74880;PMS5003;63427;49.654;6.596;2023-04-24T08:46:04;21;19;
74880;PMS5003;63427;49.654;6.596;2023-04-24T08:48:30;14;14;
74880;PMS5003;63427;49.654;6.596;2023-04-24T08:50:55;13;12;
74880;PMS5003;63427;49.654;6.596;2023-04-24T08:53:20;13;13;
74880;PMS5003;63427;49.654;6.596;2023-04-24T08:55:47;13;13;
74880;PMS5003;63427;49.654;6.596;2023-04-24T08:58:11;13;13;
74880;PMS5003;63427;49.654;6.596;2023-04-24T09:00:47;14;14;
74880;PMS5003;63427;49.654;6.596;2023-04-24T09:03:02;16;16;
74880;PMS5003;63427;49.654;6.596;2023-04-24T09:05:28;17;17;
74880;PMS5003;63427;49.654;6.596;2023-04-24T09:07:54;21;21;
74880;PMS5003;63427;49.654;6.596;2023-04-24T09:10:18;14;14;
74880;PMS5003;63427;49.654;6.596;2023-04-24T09:12:44;20;19;
74880;PMS5003;63427;49.654;6.596;2023-04-24T09:15:21;15;14;
74880;PMS5003;63427;49.654;6.596;2023-04-24T10:37:37;13;12;
74880;PMS5003;63427;49.654;6.596;2023-04-24T10:40:02;15;15;
74880;PMS5003;63427;49.654;6.596;2023-04-24T11:18:50;9;9;
74880;PMS5003;63427;49.654;6.596;2023-04-24T11:21:15;13;13;
74880;PMS5003;63427;49.654;6.596;2023-04-24T11:23:41;14;13;
74880;PMS5003;63427;49.654;6.596;2023-04-24T11:28:29;16;15;
74880;PMS5003;63427;49.654;6.596;2023-04-24T11:30:55;16;15;
74880;PMS5003;63427;49.654;6.596;2023-04-24T11:33:19;14;14;
74880;PMS5003;63427;49.654;6.596;2023-04-24T11:35:45;15;15;
74880;PMS5003;63427;49.654;6.596;2023-04-24T11:38:10;16;16;
74880;PMS5003;63427;49.654;6.596;2023-04-24T11:40:36;16;15;
74880;PMS5003;63427;49.654;6.596;2023-04-24T11:43:01;15;15;
74880;PMS5003;63427;49.654;6.596;2023-04-24T11:45:27;16;16;
74880;PMS5003;63427;49.654;6.596;2023-04-24T11:47:52;15;15;
74880;PMS5003;63427;49.654;6.596;2023-04-24T11:50:17;12;12;
74880;PMS5003;63427;49.654;6.596;2023-04-24T11:52:43;15;13;
74880;PMS5003;63427;49.654;6.596;2023-04-24T11:55:12;15;15;
74880;PMS5003;63427;49.654;6.596;2023-04-24T11:57:33;13;13;
74880;PMS5003;63427;49.654;6.596;2023-04-24T11:59:59;17;16;
74880;PMS5003;63427;49.654;6.596;2023-04-24T12:02:25;14;14;
74880;PMS5003;63427;49.654;6.596;2023-04-24T12:04:49;17;16;
74880;PMS5003;63427;49.654;6.596;2023-04-24T12:07:14;16;16;
74880;PMS5003;63427;49.654;6.596;2023-04-24T12:09:40;15;14;
74880;PMS5003;63427;49.654;6.596;2023-04-24T12:12:06;18;18;
74880;PMS5003;63427;49.654;6.596;2023-04-24T12:14:31;14;13;
74880;PMS5003;63427;49.654;6.596;2023-04-24T12:16:56;16;16;
74880;PMS5003;63427;49.654;6.596;2023-04-24T12:19:21;16;16;
74880;PMS5003;63427;49.654;6.596;2023-04-24T12:24:12;15;15;
74880;PMS5003;63427;49.654;6.596;2023-04-24T12:26:36;16;16;
74880;PMS5003;63427;49.654;6.596;2023-04-24T12:29:02;13;13;
74880;PMS5003;63427;49.654;6.596;2023-04-24T12:31:28;18;18;
74880;PMS5003;63427;49.654;6.596;2023-04-24T12:33:53;15;15;
74880;PMS5003;63427;49.654;6.596;2023-04-24T12:36:21;16;14;
74880;PMS5003;63427;49.654;6.596;2023-04-24T12:38:44;17;17;
74880;PMS5003;63427;49.654;6.596;2023-04-24T12:41:11;13;13;
74880;PMS5003;63427;49.654;6.596;2023-04-24T12:43:35;13;13;
74880;PMS5003;63427;49.654;6.596;2023-04-24T12:46:01;12;12;
74880;PMS5003;63427;49.654;6.596;2023-04-24T12:48:26;14;13;
74880;PMS5003;63427;49.654;6.596;2023-04-24T12:50:52;14;14;
74880;PMS5003;63427;49.654;6.596;2023-04-24T12:53:18;13;13;
74880;PMS5003;63427;49.654;6.596;2023-04-24T12:55:43;13;13;
74880;PMS5003;63427;49.654;6.596;2023-04-24T12:58:08;11;10;
74880;PMS5003;63427;49.654;6.596;2023-04-24T13:00:33;13;12;
74880;PMS5003;63427;49.654;6.596;2023-04-24T13:02:59;12;12;
74880;PMS5003;63427;49.654;6.596;2023-04-24T13:05:24;15;15;
74880;PMS5003;63427;49.654;6.596;2023-04-24T13:07:49;13;13;
74880;PMS5003;63427;49.654;6.596;2023-04-24T13:10:14;16;15;
74880;PMS5003;63427;49.654;6.596;2023-04-24T13:12:40;14;14;
74880;PMS5003;63427;49.654;6.596;2023-04-24T13:15:06;12;12;
74880;PMS5003;63427;49.654;6.596;2023-04-24T13:17:31;13;13;
74880;PMS5003;63427;49.654;6.596;2023-04-24T13:19:57;14;12;
74880;PMS5003;63427;49.654;6.596;2023-04-24T13:22:22;12;12;
74880;PMS5003;63427;49.654;6.596;2023-04-24T13:24:47;11;11;
74880;PMS5003;63427;49.654;6.596;2023-04-24T13:27:13;13;13;
74880;PMS5003;63427;49.654;6.596;2023-04-24T13:29:39;14;13;
74880;PMS5003;63427;49.654;6.596;2023-04-24T13:32:04;12;12;
74880;PMS5003;63427;49.654;6.596;2023-04-24T13:34:29;12;11;
74880;PMS5003;63427;49.654;6.596;2023-04-24T13:36:55;16;16;
74880;PMS5003;63427;49.654;6.596;2023-04-24T13:39:20;13;12;
74880;PMS5003;63427;49.654;6.596;2023-04-24T13:41:45;14;13;
74880;PMS5003;63427;49.654;6.596;2023-04-24T13:44:10;13;12;
74880;PMS5003;63427;49.654;6.596;2023-04-24T13:46:35;14;13;
74880;PMS5003;63427;49.654;6.596;2023-04-24T13:49:01;16;16;
74880;PMS5003;63427;49.654;6.596;2023-04-24T13:51:26;13;12;
74880;PMS5003;63427;49.654;6.596;2023-04-24T13:53:52;14;14;
74880;PMS5003;63427;49.654;6.596;2023-04-24T13:56:17;13;13;
74880;PMS5003;63427;49.654;6.596;2023-04-24T13:58:43;13;13;
74880;PMS5003;63427;49.654;6.596;2023-04-24T14:01:08;14;14;
74880;PMS5003;63427;49.654;6.596;2023-04-24T14:03:34;13;13;
74880;PMS5003;63427;49.654;6.596;2023-04-24T14:05:59;11;11;
74880;PMS5003;63427;49.654;6.596;2023-04-24T14:08:24;12;12;
74880;PMS5003;63427;49.654;6.596;2023-04-24T14:10:50;10;10;
74880;PMS5003;63427;49.654;6.596;2023-04-24T14:13:14;17;17;
74880;PMS5003;63427;49.654;6.596;2023-04-24T14:15:40;12;12;
74880;PMS5003;63427;49.654;6.596;2023-04-24T14:18:05;11;11;
74880;PMS5003;63427;49.654;6.596;2023-04-24T14:20:30;9;9;
74880;PMS5003;63427;49.654;6.596;2023-04-24T14:22:55;11;11;
74880;PMS5003;63427;49.654;6.596;2023-04-24T14:25:20;12;12;
74880;PMS5003;63427;49.654;6.596;2023-04-24T14:27:45;11;11;
74880;PMS5003;63427;49.654;6.596;2023-04-24T14:30:11;13;13;
74880;PMS5003;63427;49.654;6.596;2023-04-24T14:32:35;10;10;
74880;PMS5003;63427;49.654;6.596;2023-04-24T14:35:00;13;13;
74880;PMS5003;63427;49.654;6.596;2023-04-24T14:37:25;12;12;
74880;PMS5003;63427;49.654;6.596;2023-04-24T14:39:50;10;10;
74880;PMS5003;63427;49.654;6.596;2023-04-24T14:42:15;10;10;
74880;PMS5003;63427;49.654;6.596;2023-04-24T14:44:41;8;8;
74880;PMS5003;63427;49.654;6.596;2023-04-24T14:47:05;11;11;
74880;PMS5003;63427;49.654;6.596;2023-04-24T14:49:30;8;8;
74880;PMS5003;63427;49.654;6.596;2023-04-24T14:51:56;11;11;
74880;PMS5003;63427;49.654;6.596;2023-04-24T14:54:21;10;10;
74880;PMS5003;63427;49.654;6.596;2023-04-24T14:56:47;9;9;
74880;PMS5003;63427;49.654;6.596;2023-04-24T14:59:11;8;8;
74880;PMS5003;63427;49.654;6.596;2023-04-24T15:01:39;10;10;
74880;PMS5003;63427;49.654;6.596;2023-04-24T15:04:02;10;10;
74880;PMS5003;63427;49.654;6.596;2023-04-24T15:06:27;12;12;
74880;PMS5003;63427;49.654;6.596;2023-04-24T15:08:52;11;10;
74880;PMS5003;63427;49.654;6.596;2023-04-24T15:11:20;11;10;
74880;PMS5003;63427;49.654;6.596;2023-04-24T15:16:08;11;10;
74880;PMS5003;63427;49.654;6.596;2023-04-24T15:18:33;11;11;
74880;PMS5003;63427;49.654;6.596;2023-04-24T15:20:58;10;10;
74880;PMS5003;63427;49.654;6.596;2023-04-24T15:23:24;9;9;
74880;PMS5003;63427;49.654;6.596;2023-04-24T15:25:49;9;9;
74880;PMS5003;63427;49.654;6.596;2023-04-24T15:28:14;10;9;
74880;PMS5003;63427;49.654;6.596;2023-04-24T15:30:39;8;8;
74880;PMS5003;63427;49.654;6.596;2023-04-24T15:33:04;10;10;
74880;PMS5003;63427;49.654;6.596;2023-04-24T15:35:29;9;9;
74880;PMS5003;63427;49.654;6.596;2023-04-24T15:37:55;10;10;
74880;PMS5003;63427;49.654;6.596;2023-04-24T15:40:25;10;10;
74880;PMS5003;63427;49.654;6.596;2023-04-24T15:42:55;9;9;
74880;PMS5003;63427;49.654;6.596;2023-04-24T15:45:11;9;9;
74880;PMS5003;63427;49.654;6.596;2023-04-24T15:47:36;8;8;
74880;PMS5003;63427;49.654;6.596;2023-04-24T15:50:02;7;7;
74880;PMS5003;63427;49.654;6.596;2023-04-24T15:52:37;8;8;
74880;PMS5003;63427;49.654;6.596;2023-04-24T15:54:52;5;5;
74880;PMS5003;63427;49.654;6.596;2023-04-24T15:57:18;7;7;
74880;PMS5003;63427;49.654;6.596;2023-04-24T15:59:43;5;5;
74880;PMS5003;63427;49.654;6.596;2023-04-24T16:02:08;7;7;
74880;PMS5003;63427;49.654;6.596;2023-04-24T16:04:34;7;7;
74880;PMS5003;63427;49.654;6.596;2023-04-24T16:07:08;5;5;
74880;PMS5003;63427;49.654;6.596;2023-04-24T16:09:27;8;8;
74880;PMS5003;63427;49.654;6.596;2023-04-24T16:11:50;6;6;
74880;PMS5003;63427;49.654;6.596;2023-04-24T16:14:15;7;7;
74880;PMS5003;63427;49.654;6.596;2023-04-24T16:16:41;6;6;
74880;PMS5003;63427;49.654;6.596;2023-04-24T16:19:06;4;4;
74880;PMS5003;63427;49.654;6.596;2023-04-24T16:21:32;7;7;
74880;PMS5003;63427;49.654;6.596;2023-04-24T16:23:57;6;6;
74880;PMS5003;63427;49.654;6.596;2023-04-24T16:26:33;6;6;
74880;PMS5003;63427;49.654;6.596;2023-04-24T16:28:48;5;5;
74880;PMS5003;63427;49.654;6.596;2023-04-24T16:31:13;10;9;
74880;PMS5003;63427;49.654;6.596;2023-04-24T16:33:39;6;6;
74880;PMS5003;63427;49.654;6.596;2023-04-24T16:36:14;5;5;
74880;PMS5003;63427;49.654;6.596;2023-04-24T16:38:29;5;5;
74880;PMS5003;63427;49.654;6.596;2023-04-24T16:40:55;11;10;
74880;PMS5003;63427;49.654;6.596;2023-04-24T16:43:20;10;10;
74880;PMS5003;63427;49.654;6.596;2023-04-24T16:45:56;9;9;
74880;PMS5003;63427;49.654;6.596;2023-04-24T16:48:11;4;4;
74880;PMS5003;63427;49.654;6.596;2023-04-24T16:50:37;6;6;
74880;PMS5003;63427;49.654;6.596;2023-04-24T16:53:02;6;6;
74880;PMS5003;63427;49.654;6.596;2023-04-24T16:55:28;5;5;
74880;PMS5003;63427;49.654;6.596;2023-04-24T16:57:53;7;7;
74880;PMS5003;63427;49.654;6.596;2023-04-24T17:00:19;8;7;
74880;PMS5003;63427;49.654;6.596;2023-04-24T17:02:44;8;8;
74880;PMS5003;63427;49.654;6.596;2023-04-24T17:05:09;7;7;
74880;PMS5003;63427;49.654;6.596;2023-04-24T17:07:35;5;5;
74880;PMS5003;63427;49.654;6.596;2023-04-24T17:10:00;5;5;
74880;PMS5003;63427;49.654;6.596;2023-04-24T17:12:26;8;8;
74880;PMS5003;63427;49.654;6.596;2023-04-24T17:14:51;9;9;
74880;PMS5003;63427;49.654;6.596;2023-04-24T17:17:17;9;9;
74880;PMS5003;63427;49.654;6.596;2023-04-24T17:19:42;8;8;
74880;PMS5003;63427;49.654;6.596;2023-04-24T17:22:07;8;8;
74880;PMS5003;63427;49.654;6.596;2023-04-24T17:24:33;8;8;
74880;PMS5003;63427;49.654;6.596;2023-04-24T17:26:58;8;8;
74880;PMS5003;63427;49.654;6.596;2023-04-24T17:29:24;8;8;
74880;PMS5003;63427;49.654;6.596;2023-04-24T17:31:49;8;8;
74880;PMS5003;63427;49.654;6.596;2023-04-24T17:34:14;6;6;
74880;PMS5003;63427;49.654;6.596;2023-04-24T17:36:40;9;9;
74880;PMS5003;63427;49.654;6.596;2023-04-24T17:39:05;10;10;
74880;PMS5003;63427;49.654;6.596;2023-04-24T17:41:31;8;8;
74880;PMS5003;63427;49.654;6.596;2023-04-24T17:43:56;9;9;
74880;PMS5003;63427;49.654;6.596;2023-04-24T17:46:22;7;7;
74880;PMS5003;63427;49.654;6.596;2023-04-24T17:48:47;10;10;
74880;PMS5003;63427;49.654;6.596;2023-04-24T17:51:13;11;10;
74880;PMS5003;63427;49.654;6.596;2023-04-24T17:53:38;14;13;
74880;PMS5003;63427;49.654;6.596;2023-04-24T17:56:03;10;10;
74880;PMS5003;63427;49.654;6.596;2023-04-24T17:58:28;14;14;
74880;PMS5003;63427;49.654;6.596;2023-04-24T18:00:54;14;14;
74880;PMS5003;63427;49.654;6.596;2023-04-24T18:03:19;13;13;
74880;PMS5003;63427;49.654;6.596;2023-04-24T18:05:45;12;11;
74880;PMS5003;63427;49.654;6.596;2023-04-24T18:08:11;11;10;
74880;PMS5003;63427;49.654;6.596;2023-04-24T18:10:36;10;10;
74880;PMS5003;63427;49.654;6.596;2023-04-24T18:13:02;11;11;
74880;PMS5003;63427;49.654;6.596;2023-04-24T18:15:27;13;12;
74880;PMS5003;63427;49.654;6.596;2023-04-24T18:17:52;19;18;
74880;PMS5003;63427;49.654;6.596;2023-04-24T18:20:28;23;21;
74880;PMS5003;63427;49.654;6.596;2023-04-24T18:22:43;15;14;
74880;PMS5003;63427;49.654;6.596;2023-04-24T18:25:09;16;14;
74880;PMS5003;63427;49.654;6.596;2023-04-24T18:27:34;19;19;
74880;PMS5003;63427;49.654;6.596;2023-04-24T18:29:59;14;14;
74880;PMS5003;63427;49.654;6.596;2023-04-24T18:32:25;13;13;
74880;PMS5003;63427;49.654;6.596;2023-04-24T18:34:50;15;13;
74880;PMS5003;63427;49.654;6.596;2023-04-24T18:37:15;9;9;
74880;PMS5003;63427;49.654;6.596;2023-04-24T18:39:43;16;14;
74880;PMS5003;63427;49.654;6.596;2023-04-24T18:42:07;10;10;
74880;PMS5003;63427;49.654;6.596;2023-04-24T18:44:32;8;8;
74880;PMS5003;63427;49.654;6.596;2023-04-24T18:46:58;8;8;
74880;PMS5003;63427;49.654;6.596;2023-04-24T18:49:24;7;7;
74880;PMS5003;63427;49.654;6.596;2023-04-24T18:51:49;10;10;
74880;PMS5003;63427;49.654;6.596;2023-04-24T18:54:14;7;7;
74880;PMS5003;63427;49.654;6.596;2023-04-24T18:56:40;8;8;
74880;PMS5003;63427;49.654;6.596;2023-04-24T18:59:05;9;9;
74880;PMS5003;63427;49.654;6.596;2023-04-24T19:01:30;8;7;
74880;PMS5003;63427;49.654;6.596;2023-04-24T19:03:56;6;6;
74880;PMS5003;63427;49.654;6.596;2023-04-24T19:06:21;9;9;
74880;PMS5003;63427;49.654;6.596;2023-04-24T19:08:47;9;8;
74880;PMS5003;63427;49.654;6.596;2023-04-24T19:11:12;6;6;
74880;PMS5003;63427;49.654;6.596;2023-04-24T19:13:38;6;6;
74880;PMS5003;63427;49.654;6.596;2023-04-24T19:16:03;6;6;
74880;PMS5003;63427;49.654;6.596;2023-04-24T19:18:29;6;6;
74880;PMS5003;63427;49.654;6.596;2023-04-24T19:20:55;8;7;
74880;PMS5003;63427;49.654;6.596;2023-04-24T19:23:20;6;6;
74880;PMS5003;63427;49.654;6.596;2023-04-24T19:25:46;6;6;
74880;PMS5003;63427;49.654;6.596;2023-04-24T19:28:12;7;7;
74880;PMS5003;63427;49.654;6.596;2023-04-24T19:30:37;7;7;
74880;PMS5003;63427;49.654;6.596;2023-04-24T19:33:02;7;7;
74880;PMS5003;63427;49.654;6.596;2023-04-24T19:35:28;9;8;
74880;PMS5003;63427;49.654;6.596;2023-04-24T19:37:53;9;8;
74880;PMS5003;63427;49.654;6.596;2023-04-24T19:40:19;9;9;
74880;PMS5003;63427;49.654;6.596;2023-04-24T19:42:44;12;11;
74880;PMS5003;63427;49.654;6.596;2023-04-24T19:45:10;9;9;
74880;PMS5003;63427;49.654;6.596;2023-04-24T19:47:36;8;7;
74880;PMS5003;63427;49.654;6.596;2023-04-24T19:50:01;8;8;
74880;PMS5003;63427;49.654;6.596;2023-04-24T19:52:27;9;9;
74880;PMS5003;63427;49.654;6.596;2023-04-24T19:54:52;10;9;
74880;PMS5003;63427;49.654;6.596;2023-04-24T19:57:23;9;9;
74880;PMS5003;63427;49.654;6.596;2023-04-24T19:59:43;10;10;
74880;PMS5003;63427;49.654;6.596;2023-04-24T20:02:09;7;7;
74880;PMS5003;63427;49.654;6.596;2023-04-24T20:04:34;10;10;
74880;PMS5003;63427;49.654;6.596;2023-04-24T20:07:00;10;10;
74880;PMS5003;63427;49.654;6.596;2023-04-24T20:09:26;9;9;
74880;PMS5003;63427;49.654;6.596;2023-04-24T20:11:56;11;11;
74880;PMS5003;63427;49.654;6.596;2023-04-24T20:14:17;10;10;
74880;PMS5003;63427;49.654;6.596;2023-04-24T20:16:43;12;12;
74880;PMS5003;63427;49.654;6.596;2023-04-24T20:19:07;14;14;
74880;PMS5003;63427;49.654;6.596;2023-04-24T20:21:33;14;13;
74880;PMS5003;63427;49.654;6.596;2023-04-24T20:23:58;12;12;
74880;PMS5003;63427;49.654;6.596;2023-04-24T20:26:24;13;13;
74880;PMS5003;63427;49.654;6.596;2023-04-24T20:28:49;14;13;
74880;PMS5003;63427;49.654;6.596;2023-04-24T20:31:15;13;13;
74880;PMS5003;63427;49.654;6.596;2023-04-24T20:33:40;14;14;
74880;PMS5003;63427;49.654;6.596;2023-04-24T20:36:06;15;14;
74880;PMS5003;63427;49.654;6.596;2023-04-24T20:40:56;11;11;
74880;PMS5003;63427;49.654;6.596;2023-04-24T20:43:22;15;15;
74880;PMS5003;63427;49.654;6.596;2023-04-24T20:45:47;12;12;
74880;PMS5003;63427;49.654;6.596;2023-04-24T20:48:13;14;14;
74880;PMS5003;63427;49.654;6.596;2023-04-24T20:50:38;16;15;
74880;PMS5003;63427;49.654;6.596;2023-04-24T20:53:04;18;18;
74880;PMS5003;63427;49.654;6.596;2023-04-24T20:55:29;14;14;
74880;PMS5003;63427;49.654;6.596;2023-04-24T20:57:55;15;15;
74880;PMS5003;63427;49.654;6.596;2023-04-24T21:00:20;17;16;
74880;PMS5003;63427;49.654;6.596;2023-04-24T21:02:45;14;13;
74880;PMS5003;63427;49.654;6.596;2023-04-24T21:05:11;15;15;
74880;PMS5003;63427;49.654;6.596;2023-04-24T21:07:36;16;15;
74880;PMS5003;63427;49.654;6.596;2023-04-24T21:10:02;12;12;
74880;PMS5003;63427;49.654;6.596;2023-04-24T21:12:33;14;14;
74880;PMS5003;63427;49.654;6.596;2023-04-24T21:14:53;14;14;
74880;PMS5003;63427;49.654;6.596;2023-04-24T21:17:19;13;12;
74880;PMS5003;63427;49.654;6.596;2023-04-24T21:19:44;16;16;
74880;PMS5003;63427;49.654;6.596;2023-04-24T21:22:09;13;13;
74880;PMS5003;63427;49.654;6.596;2023-04-24T21:24:34;17;17;
74880;PMS5003;63427;49.654;6.596;2023-04-24T21:27:00;15;15;
74880;PMS5003;63427;49.654;6.596;2023-04-24T21:29:25;13;13;
74880;PMS5003;63427;49.654;6.596;2023-04-24T21:31:51;18;17;
74880;PMS5003;63427;49.654;6.596;2023-04-24T21:34:17;15;15;
74880;PMS5003;63427;49.654;6.596;2023-04-24T21:36:43;19;18;
74880;PMS5003;63427;49.654;6.596;2023-04-24T21:39:08;19;17;
74880;PMS5003;63427;49.654;6.596;2023-04-24T21:41:34;17;17;
74880;PMS5003;63427;49.654;6.596;2023-04-24T21:43:58;18;17;
74880;PMS5003;63427;49.654;6.596;2023-04-24T21:46:24;17;17;
74880;PMS5003;63427;49.654;6.596;2023-04-24T21:48:49;12;12;
74880;PMS5003;63427;49.654;6.596;2023-04-24T21:51:15;17;17;
74880;PMS5003;63427;49.654;6.596;2023-04-24T21:53:40;16;15;
74880;PMS5003;63427;49.654;6.596;2023-04-24T21:56:06;17;17;
74880;PMS5003;63427;49.654;6.596;2023-04-24T21:58:31;17;17;
74880;PMS5003;63427;49.654;6.596;2023-04-24T22:00:56;17;17;
74880;PMS5003;63427;49.654;6.596;2023-04-24T22:03:21;15;15;
74880;PMS5003;63427;49.654;6.596;2023-04-24T22:05:47;15;14;
74880;PMS5003;63427;49.654;6.596;2023-04-24T22:08:12;17;16;
74880;PMS5003;63427;49.654;6.596;2023-04-24T22:10:38;15;15;
74880;PMS5003;63427;49.654;6.596;2023-04-24T22:13:03;14;14;
74880;PMS5003;63427;49.654;6.596;2023-04-24T22:15:28;17;17;